sensor_id;sensor_type;location;lat;lon;timestamp;temperature;humidity
59309;DHT22;48433;53.016;-2.260;2023-03-01T00:04:09;5.90;99.90
59309;DHT22;48433;53.016;-2.260;2023-03-01T00:06:37;6.00;99.90
59309;DHT22;48433;53.016;-2.260;2023-03-01T00:09:05;6.00;99.90
59309;DHT22;48433;53.016;-2.260;2023-03-01T00:11:33;6.10;99.90
59309;DHT22;48433;53.016;-2.260;2023-03-01T00:14:02;6.20;99.90
59309;DHT22;48433;53.016;-2.260;2023-03-01T00:16:34;6.20;99.90
59309;DHT22;48433;53.016;-2.260;2023-03-01T00:19:02;6.30;99.90
59309;DHT22;48433;53.016;-2.260;2023-03-01T00:26:26;6.40;99.90
59309;DHT22;48433;53.016;-2.260;2023-03-01T00:28:57;6.40;99.90
59309;DHT22;48433;53.016;-2.260;2023-03-01T00:31:27;6.40;99.90
59309;DHT22;48433;53.016;-2.260;2023-03-01T00:33:58;6.50;99.90
59309;DHT22;48433;53.016;-2.260;2023-03-01T00:36:29;6.50;99.90
59309;DHT22;48433;53.016;-2.260;2023-03-01T00:38:57;6.50;99.90
59309;DHT22;48433;53.016;-2.260;2023-03-01T00:41:26;6.50;99.90
59309;DHT22;48433;53.016;-2.260;2023-03-01T00:43:54;6.50;99.90
59309;DHT22;48433;53.016;-2.260;2023-03-01T00:46:25;6.50;99.90
59309;DHT22;48433;53.016;-2.260;2023-03-01T00:52:11;6.50;99.90
59309;DHT22;48433;53.016;-2.260;2023-03-01T00:55:27;6.50;99.90
59309;DHT22;48433;53.016;-2.260;2023-03-01T01:00:22;6.50;99.90
59309;DHT22;48433;53.016;-2.260;2023-03-01T01:05:18;6.50;99.90
59309;DHT22;48433;53.016;-2.260;2023-03-01T01:07:48;6.50;99.90
59309;DHT22;48433;53.016;-2.260;2023-03-01T01:12:45;6.50;99.90
59309;DHT22;48433;53.016;-2.260;2023-03-01T01:15:13;6.50;99.90
59309;DHT22;48433;53.016;-2.260;2023-03-01T01:18:09;6.50;99.90
59309;DHT22;48433;53.016;-2.260;2023-03-01T01:21:26;6.50;99.90
59309;DHT22;48433;53.016;-2.260;2023-03-01T01:23:54;6.50;99.90
59309;DHT22;48433;53.016;-2.260;2023-03-01T01:26:28;6.50;99.90
59309;DHT22;48433;53.016;-2.260;2023-03-01T01:28:57;6.40;99.90
59309;DHT22;48433;53.016;-2.260;2023-03-01T01:31:25;6.50;99.90
59309;DHT22;48433;53.016;-2.260;2023-03-01T01:33:56;6.40;99.90
59309;DHT22;48433;53.016;-2.260;2023-03-01T01:41:21;6.40;99.90
59309;DHT22;48433;53.016;-2.260;2023-03-01T01:44:11;6.40;99.90
59309;DHT22;48433;53.016;-2.260;2023-03-01T01:47:07;6.50;99.90
59309;DHT22;48433;53.016;-2.260;2023-03-01T01:53:09;6.40;99.90
59309;DHT22;48433;53.016;-2.260;2023-03-01T01:55:41;6.40;99.90
59309;DHT22;48433;53.016;-2.260;2023-03-01T01:58:11;6.40;99.90
59309;DHT22;48433;53.016;-2.260;2023-03-01T02:00:40;6.50;99.90
59309;DHT22;48433;53.016;-2.260;2023-03-01T02:03:30;6.40;99.90
59309;DHT22;48433;53.016;-2.260;2023-03-01T02:08:40;6.40;99.90
59309;DHT22;48433;53.016;-2.260;2023-03-01T02:11:10;6.50;99.90
59309;DHT22;48433;53.016;-2.260;2023-03-01T02:13:38;6.50;99.90
59309;DHT22;48433;53.016;-2.260;2023-03-01T02:16:10;6.50;99.90
59309;DHT22;48433;53.016;-2.260;2023-03-01T02:18:40;6.50;99.90
59309;DHT22;48433;53.016;-2.260;2023-03-01T02:21:14;6.50;99.90
59309;DHT22;48433;53.016;-2.260;2023-03-01T02:23:46;6.50;99.90
59309;DHT22;48433;53.016;-2.260;2023-03-01T02:26:25;6.40;99.90
59309;DHT22;48433;53.016;-2.260;2023-03-01T02:28:59;6.40;99.90
59309;DHT22;48433;53.016;-2.260;2023-03-01T02:31:26;6.40;99.90
59309;DHT22;48433;53.016;-2.260;2023-03-01T02:34:17;6.40;99.90
59309;DHT22;48433;53.016;-2.260;2023-03-01T02:39:18;6.40;99.90
59309;DHT22;48433;53.016;-2.260;2023-03-01T02:41:50;6.40;99.90
59309;DHT22;48433;53.016;-2.260;2023-03-01T02:44:20;6.40;99.90
59309;DHT22;48433;53.016;-2.260;2023-03-01T02:46:50;6.30;99.90
59309;DHT22;48433;53.016;-2.260;2023-03-01T02:49:31;6.30;99.90
59309;DHT22;48433;53.016;-2.260;2023-03-01T02:57:09;6.30;99.90
59309;DHT22;48433;53.016;-2.260;2023-03-01T02:59:39;6.20;99.90
59309;DHT22;48433;53.016;-2.260;2023-03-01T03:02:19;6.30;99.90
59309;DHT22;48433;53.016;-2.260;2023-03-01T03:14:40;6.30;99.90
59309;DHT22;48433;53.016;-2.260;2023-03-01T03:27:05;6.30;99.90
59309;DHT22;48433;53.016;-2.260;2023-03-01T03:29:33;6.30;99.90
59309;DHT22;48433;53.016;-2.260;2023-03-01T03:34:30;6.30;99.90
59309;DHT22;48433;53.016;-2.260;2023-03-01T03:39:26;6.30;99.90
59309;DHT22;48433;53.016;-2.260;2023-03-01T03:41:54;6.30;99.90
59309;DHT22;48433;53.016;-2.260;2023-03-01T03:44:22;6.30;99.90
59309;DHT22;48433;53.016;-2.260;2023-03-01T03:51:45;6.30;99.90
59309;DHT22;48433;53.016;-2.260;2023-03-01T03:56:41;6.30;99.90
59309;DHT22;48433;53.016;-2.260;2023-03-01T03:59:11;6.30;99.90
59309;DHT22;48433;53.016;-2.260;2023-03-01T04:01:38;6.30;99.90
59309;DHT22;48433;53.016;-2.260;2023-03-01T04:04:06;6.20;99.90
59309;DHT22;48433;53.016;-2.260;2023-03-01T04:06:35;6.20;99.90
59309;DHT22;48433;53.016;-2.260;2023-03-01T04:09:02;6.20;99.90
59309;DHT22;48433;53.016;-2.260;2023-03-01T04:13:58;6.20;99.90
59309;DHT22;48433;53.016;-2.260;2023-03-01T04:16:27;6.20;99.90
59309;DHT22;48433;53.016;-2.260;2023-03-01T04:18:55;6.20;99.90
59309;DHT22;48433;53.016;-2.260;2023-03-01T04:31:19;6.20;99.90
59309;DHT22;48433;53.016;-2.260;2023-03-01T04:33:51;6.20;99.90
59309;DHT22;48433;53.016;-2.260;2023-03-01T04:36:22;6.20;99.90
59309;DHT22;48433;53.016;-2.260;2023-03-01T04:41:21;6.10;99.90
59309;DHT22;48433;53.016;-2.260;2023-03-01T04:46:19;6.10;99.90
59309;DHT22;48433;53.016;-2.260;2023-03-01T04:48:47;6.10;99.90
59309;DHT22;48433;53.016;-2.260;2023-03-01T04:53:43;6.10;99.90
59309;DHT22;48433;53.016;-2.260;2023-03-01T04:56:12;6.10;99.90
59309;DHT22;48433;53.016;-2.260;2023-03-01T04:58:41;6.10;99.90
59309;DHT22;48433;53.016;-2.260;2023-03-01T05:01:18;6.10;99.90
59309;DHT22;48433;53.016;-2.260;2023-03-01T05:03:48;6.10;99.90
59309;DHT22;48433;53.016;-2.260;2023-03-01T05:06:16;6.10;99.90
59309;DHT22;48433;53.016;-2.260;2023-03-01T05:08:44;6.00;99.90
59309;DHT22;48433;53.016;-2.260;2023-03-01T05:11:12;6.00;99.90
59309;DHT22;48433;53.016;-2.260;2023-03-01T05:13:40;6.00;99.90
59309;DHT22;48433;53.016;-2.260;2023-03-01T05:16:08;5.90;99.90
59309;DHT22;48433;53.016;-2.260;2023-03-01T05:18:40;5.80;99.90
59309;DHT22;48433;53.016;-2.260;2023-03-01T05:21:13;5.70;99.90
59309;DHT22;48433;53.016;-2.260;2023-03-01T05:23:44;5.60;99.90
59309;DHT22;48433;53.016;-2.260;2023-03-01T05:26:13;5.50;99.90
59309;DHT22;48433;53.016;-2.260;2023-03-01T05:28:55;5.40;99.90
59309;DHT22;48433;53.016;-2.260;2023-03-01T05:31:27;5.40;99.90
59309;DHT22;48433;53.016;-2.260;2023-03-01T05:33:55;5.20;99.90
59309;DHT22;48433;53.016;-2.260;2023-03-01T05:36:23;5.10;99.90
59309;DHT22;48433;53.016;-2.260;2023-03-01T05:41:19;4.90;99.90
59309;DHT22;48433;53.016;-2.260;2023-03-01T05:43:46;4.70;99.90
59309;DHT22;48433;53.016;-2.260;2023-03-01T05:48:42;4.40;99.90
59309;DHT22;48433;53.016;-2.260;2023-03-01T05:51:11;4.40;99.90
59309;DHT22;48433;53.016;-2.260;2023-03-01T05:53:39;4.30;99.90
59309;DHT22;48433;53.016;-2.260;2023-03-01T05:56:07;4.20;99.90
59309;DHT22;48433;53.016;-2.260;2023-03-01T05:58:36;4.10;99.90
59309;DHT22;48433;53.016;-2.260;2023-03-01T06:03:33;4.00;99.90
59309;DHT22;48433;53.016;-2.260;2023-03-01T06:06:01;4.00;99.90
59309;DHT22;48433;53.016;-2.260;2023-03-01T06:08:29;4.00;99.90
59309;DHT22;48433;53.016;-2.260;2023-03-01T06:10:57;4.00;99.90
59309;DHT22;48433;53.016;-2.260;2023-03-01T06:13:25;4.10;99.90
59309;DHT22;48433;53.016;-2.260;2023-03-01T06:15:52;4.20;99.90
59309;DHT22;48433;53.016;-2.260;2023-03-01T06:20:54;4.50;99.90
59309;DHT22;48433;53.016;-2.260;2023-03-01T06:23:23;4.60;99.90
59309;DHT22;48433;53.016;-2.260;2023-03-01T06:45:34;5.20;99.90
59309;DHT22;48433;53.016;-2.260;2023-03-01T06:48:04;5.20;99.90
59309;DHT22;48433;53.016;-2.260;2023-03-01T06:50:33;5.30;99.90
59309;DHT22;48433;53.016;-2.260;2023-03-01T06:53:01;5.30;99.90
59309;DHT22;48433;53.016;-2.260;2023-03-01T06:55:29;5.30;99.90
59309;DHT22;48433;53.016;-2.260;2023-03-01T06:57:58;5.30;99.90
59309;DHT22;48433;53.016;-2.260;2023-03-01T07:00:27;5.30;99.90
59309;DHT22;48433;53.016;-2.260;2023-03-01T07:02:58;5.30;99.90
59309;DHT22;48433;53.016;-2.260;2023-03-01T07:05:26;5.30;99.90
59309;DHT22;48433;53.016;-2.260;2023-03-01T07:07:54;5.30;99.90
59309;DHT22;48433;53.016;-2.260;2023-03-01T07:10:23;5.30;99.90
59309;DHT22;48433;53.016;-2.260;2023-03-01T07:12:54;5.30;99.90
59309;DHT22;48433;53.016;-2.260;2023-03-01T07:20:19;5.30;99.90
59309;DHT22;48433;53.016;-2.260;2023-03-01T07:22:53;5.30;99.90
59309;DHT22;48433;53.016;-2.260;2023-03-01T07:25:21;5.30;99.90
59309;DHT22;48433;53.016;-2.260;2023-03-01T07:27:50;5.40;99.90
59309;DHT22;48433;53.016;-2.260;2023-03-01T07:30:19;5.40;99.90
59309;DHT22;48433;53.016;-2.260;2023-03-01T07:32:47;5.40;99.90
59309;DHT22;48433;53.016;-2.260;2023-03-01T07:35:15;5.40;99.90
59309;DHT22;48433;53.016;-2.260;2023-03-01T07:37:43;5.50;99.90
59309;DHT22;48433;53.016;-2.260;2023-03-01T07:40:11;5.40;99.90
59309;DHT22;48433;53.016;-2.260;2023-03-01T07:42:39;5.50;99.90
59309;DHT22;48433;53.016;-2.260;2023-03-01T07:47:35;5.60;99.90
59309;DHT22;48433;53.016;-2.260;2023-03-01T07:50:03;5.60;99.90
59309;DHT22;48433;53.016;-2.260;2023-03-01T07:52:32;5.70;99.90
59309;DHT22;48433;53.016;-2.260;2023-03-01T07:54:59;5.70;99.90
59309;DHT22;48433;53.016;-2.260;2023-03-01T07:57:27;5.70;99.90
59309;DHT22;48433;53.016;-2.260;2023-03-01T07:59:54;5.70;99.90
59309;DHT22;48433;53.016;-2.260;2023-03-01T08:17:14;5.80;99.90
59309;DHT22;48433;53.016;-2.260;2023-03-01T08:19:42;5.90;99.90
59309;DHT22;48433;53.016;-2.260;2023-03-01T08:29:34;5.90;99.90
59309;DHT22;48433;53.016;-2.260;2023-03-01T08:36:58;5.90;99.90
59309;DHT22;48433;53.016;-2.260;2023-03-01T08:39:26;5.90;99.90
59309;DHT22;48433;53.016;-2.260;2023-03-01T08:49:20;6.00;99.90
59309;DHT22;48433;53.016;-2.260;2023-03-01T08:54:19;6.00;99.90
59309;DHT22;48433;53.016;-2.260;2023-03-01T08:56:47;6.00;99.90
59309;DHT22;48433;53.016;-2.260;2023-03-01T08:59:16;6.10;99.90
59309;DHT22;48433;53.016;-2.260;2023-03-01T09:01:44;6.20;99.90
59309;DHT22;48433;53.016;-2.260;2023-03-01T09:04:14;6.30;99.90
59309;DHT22;48433;53.016;-2.260;2023-03-01T09:09:14;6.50;99.90
59309;DHT22;48433;53.016;-2.260;2023-03-01T09:11:44;6.60;99.90
59309;DHT22;48433;53.016;-2.260;2023-03-01T09:14:13;6.70;99.90
59309;DHT22;48433;53.016;-2.260;2023-03-01T09:16:42;6.70;99.90
59309;DHT22;48433;53.016;-2.260;2023-03-01T09:21:38;6.90;99.90
59309;DHT22;48433;53.016;-2.260;2023-03-01T09:24:13;7.00;99.90
59309;DHT22;48433;53.016;-2.260;2023-03-01T09:26:42;7.20;99.90
59309;DHT22;48433;53.016;-2.260;2023-03-01T09:34:07;7.40;99.90
59309;DHT22;48433;53.016;-2.260;2023-03-01T09:36:35;7.40;99.90
59309;DHT22;48433;53.016;-2.260;2023-03-01T09:39:03;7.40;99.90
59309;DHT22;48433;53.016;-2.260;2023-03-01T09:41:49;7.40;99.90
59309;DHT22;48433;53.016;-2.260;2023-03-01T09:44:21;7.40;99.90
59309;DHT22;48433;53.016;-2.260;2023-03-01T09:46:51;7.30;99.90
59309;DHT22;48433;53.016;-2.260;2023-03-01T09:49:22;7.40;99.90
59309;DHT22;48433;53.016;-2.260;2023-03-01T09:59:41;7.60;99.90
59309;DHT22;48433;53.016;-2.260;2023-03-01T10:10:57;7.60;99.90
59309;DHT22;48433;53.016;-2.260;2023-03-01T10:17:23;7.80;99.90
59309;DHT22;48433;53.016;-2.260;2023-03-01T10:19:47;7.90;99.90
59309;DHT22;48433;53.016;-2.260;2023-03-01T10:22:24;8.00;99.90
59309;DHT22;48433;53.016;-2.260;2023-03-01T10:24:57;8.00;99.90
59309;DHT22;48433;53.016;-2.260;2023-03-01T10:27:39;8.10;99.90
59309;DHT22;48433;53.016;-2.260;2023-03-01T10:30:32;8.10;99.90
59309;DHT22;48433;53.016;-2.260;2023-03-01T10:33:20;8.20;99.90
59309;DHT22;48433;53.016;-2.260;2023-03-01T10:35:49;8.20;99.90
59309;DHT22;48433;53.016;-2.260;2023-03-01T10:38:18;8.20;99.90
59309;DHT22;48433;53.016;-2.260;2023-03-01T10:40:58;8.20;99.90
59309;DHT22;48433;53.016;-2.260;2023-03-01T10:43:32;8.40;99.90
59309;DHT22;48433;53.016;-2.260;2023-03-01T10:46:27;8.60;99.90
59309;DHT22;48433;53.016;-2.260;2023-03-01T10:49:24;8.90;99.90
59309;DHT22;48433;53.016;-2.260;2023-03-01T10:51:53;9.10;99.90
59309;DHT22;48433;53.016;-2.260;2023-03-01T10:57:04;9.40;99.90
59309;DHT22;48433;53.016;-2.260;2023-03-01T10:59:37;9.50;99.90
59309;DHT22;48433;53.016;-2.260;2023-03-01T11:02:28;9.70;99.90
59309;DHT22;48433;53.016;-2.260;2023-03-01T11:07:53;10.50;99.90
59309;DHT22;48433;53.016;-2.260;2023-03-01T11:10:28;11.00;99.90
59309;DHT22;48433;53.016;-2.260;2023-03-01T11:13:18;11.10;99.90
59309;DHT22;48433;53.016;-2.260;2023-03-01T11:16:00;11.00;99.90
59309;DHT22;48433;53.016;-2.260;2023-03-01T11:18:30;10.70;99.90
59309;DHT22;48433;53.016;-2.260;2023-03-01T11:21:17;10.30;99.90
59309;DHT22;48433;53.016;-2.260;2023-03-01T11:23:46;10.10;99.90
59309;DHT22;48433;53.016;-2.260;2023-03-01T11:26:15;9.90;99.90
59309;DHT22;48433;53.016;-2.260;2023-03-01T11:28:49;9.80;99.90
59309;DHT22;48433;53.016;-2.260;2023-03-01T11:31:18;9.60;99.90
59309;DHT22;48433;53.016;-2.260;2023-03-01T11:34:06;9.50;99.90
59309;DHT22;48433;53.016;-2.260;2023-03-01T11:42:31;9.10;99.90
59309;DHT22;48433;53.016;-2.260;2023-03-01T11:45:08;9.10;99.90
59309;DHT22;48433;53.016;-2.260;2023-03-01T11:50:44;9.60;99.90
59309;DHT22;48433;53.016;-2.260;2023-03-01T12:10:16;10.00;99.90
59309;DHT22;48433;53.016;-2.260;2023-03-01T12:16:52;9.60;99.90
59309;DHT22;48433;53.016;-2.260;2023-03-01T12:19:24;9.40;99.90
59309;DHT22;48433;53.016;-2.260;2023-03-01T12:30:16;9.20;99.90
59309;DHT22;48433;53.016;-2.260;2023-03-01T12:38:41;9.10;99.90
59309;DHT22;48433;53.016;-2.260;2023-03-01T12:43:58;9.20;99.90
59309;DHT22;48433;53.016;-2.260;2023-03-01T12:49:25;9.00;99.90
59309;DHT22;48433;53.016;-2.260;2023-03-01T12:52:07;9.00;99.90
59309;DHT22;48433;53.016;-2.260;2023-03-01T12:54:38;9.10;99.90
59309;DHT22;48433;53.016;-2.260;2023-03-01T13:02:38;9.40;99.90
59309;DHT22;48433;53.016;-2.260;2023-03-01T13:05:23;9.40;99.90
59309;DHT22;48433;53.016;-2.260;2023-03-01T13:10:43;9.60;99.90
59309;DHT22;48433;53.016;-2.260;2023-03-01T13:13:22;9.80;99.90
59309;DHT22;48433;53.016;-2.260;2023-03-01T13:15:51;10.50;99.90
59309;DHT22;48433;53.016;-2.260;2023-03-01T13:20:56;11.60;99.90
59309;DHT22;48433;53.016;-2.260;2023-03-01T13:23:31;11.50;99.90
59309;DHT22;48433;53.016;-2.260;2023-03-01T13:26:02;11.30;99.90
59309;DHT22;48433;53.016;-2.260;2023-03-01T13:28:46;11.10;99.90
59309;DHT22;48433;53.016;-2.260;2023-03-01T13:33:57;10.40;99.90
59309;DHT22;48433;53.016;-2.260;2023-03-01T13:39:02;10.20;99.90
59309;DHT22;48433;53.016;-2.260;2023-03-01T13:44:26;10.10;99.90
59309;DHT22;48433;53.016;-2.260;2023-03-01T13:49:56;9.90;99.90
59309;DHT22;48433;53.016;-2.260;2023-03-01T13:52:35;9.90;99.90
59309;DHT22;48433;53.016;-2.260;2023-03-01T13:55:14;9.80;99.90
59309;DHT22;48433;53.016;-2.260;2023-03-01T13:57:50;9.90;99.90
59309;DHT22;48433;53.016;-2.260;2023-03-01T14:00:40;9.90;99.90
59309;DHT22;48433;53.016;-2.260;2023-03-01T14:03:13;10.00;99.90
59309;DHT22;48433;53.016;-2.260;2023-03-01T14:06:29;10.10;99.90
59309;DHT22;48433;53.016;-2.260;2023-03-01T14:08:42;10.60;99.90
59309;DHT22;48433;53.016;-2.260;2023-03-01T14:19:26;15.10;99.90
59309;DHT22;48433;53.016;-2.260;2023-03-01T14:24:58;19.70;99.90
59309;DHT22;48433;53.016;-2.260;2023-03-01T14:27:40;17.50;99.90
59309;DHT22;48433;53.016;-2.260;2023-03-01T14:30:31;17.30;99.90
59309;DHT22;48433;53.016;-2.260;2023-03-01T14:33:03;15.70;98.40
59309;DHT22;48433;53.016;-2.260;2023-03-01T14:35:33;13.90;99.90
59309;DHT22;48433;53.016;-2.260;2023-03-01T14:38:02;12.80;99.90
59309;DHT22;48433;53.016;-2.260;2023-03-01T14:40:35;12.10;99.90
59309;DHT22;48433;53.016;-2.260;2023-03-01T14:43:10;11.60;99.90
59309;DHT22;48433;53.016;-2.260;2023-03-01T14:45:39;11.20;99.90
59309;DHT22;48433;53.016;-2.260;2023-03-01T14:48:07;11.00;99.90
59309;DHT22;48433;53.016;-2.260;2023-03-01T14:50:40;10.90;99.90
59309;DHT22;48433;53.016;-2.260;2023-03-01T14:53:22;10.80;99.90
59309;DHT22;48433;53.016;-2.260;2023-03-01T14:55:52;10.90;99.90
59309;DHT22;48433;53.016;-2.260;2023-03-01T14:58:23;11.40;99.90
59309;DHT22;48433;53.016;-2.260;2023-03-01T15:00:54;12.00;99.90
59309;DHT22;48433;53.016;-2.260;2023-03-01T15:03:41;12.80;99.90
59309;DHT22;48433;53.016;-2.260;2023-03-01T15:06:18;13.20;99.90
59309;DHT22;48433;53.016;-2.260;2023-03-01T15:08:51;13.20;99.90
59309;DHT22;48433;53.016;-2.260;2023-03-01T15:11:31;12.80;99.90
59309;DHT22;48433;53.016;-2.260;2023-03-01T15:13:59;12.30;99.90
59309;DHT22;48433;53.016;-2.260;2023-03-01T15:16:31;11.80;99.90
59309;DHT22;48433;53.016;-2.260;2023-03-01T15:19:03;11.40;99.90
59309;DHT22;48433;53.016;-2.260;2023-03-01T15:21:36;11.00;99.90
59309;DHT22;48433;53.016;-2.260;2023-03-01T15:27:00;10.30;99.90
59309;DHT22;48433;53.016;-2.260;2023-03-01T15:29:34;10.10;99.90
59309;DHT22;48433;53.016;-2.260;2023-03-01T15:32:28;9.90;99.90
59309;DHT22;48433;53.016;-2.260;2023-03-01T15:34:58;9.70;99.90
59309;DHT22;48433;53.016;-2.260;2023-03-01T15:37:45;9.50;99.90
59309;DHT22;48433;53.016;-2.260;2023-03-01T15:40:22;9.40;99.90
59309;DHT22;48433;53.016;-2.260;2023-03-01T15:42:59;9.40;99.90
59309;DHT22;48433;53.016;-2.260;2023-03-01T15:45:29;9.40;99.90
59309;DHT22;48433;53.016;-2.260;2023-03-01T15:47:58;9.40;99.90
59309;DHT22;48433;53.016;-2.260;2023-03-01T15:50:33;9.50;99.90
59309;DHT22;48433;53.016;-2.260;2023-03-01T15:53:10;9.50;99.90
59309;DHT22;48433;53.016;-2.260;2023-03-01T15:55:39;9.50;99.90
59309;DHT22;48433;53.016;-2.260;2023-03-01T15:58:12;9.50;99.90
59309;DHT22;48433;53.016;-2.260;2023-03-01T16:00:41;9.40;99.90
59309;DHT22;48433;53.016;-2.260;2023-03-01T16:05:54;9.30;99.90
59309;DHT22;48433;53.016;-2.260;2023-03-01T16:08:21;9.30;99.90
59309;DHT22;48433;53.016;-2.260;2023-03-01T16:13:19;9.20;99.90
59309;DHT22;48433;53.016;-2.260;2023-03-01T16:15:47;9.10;99.90
59309;DHT22;48433;53.016;-2.260;2023-03-01T16:18:15;9.00;99.90
59309;DHT22;48433;53.016;-2.260;2023-03-01T16:23:11;8.80;99.90
59309;DHT22;48433;53.016;-2.260;2023-03-01T16:25:38;8.80;99.90
59309;DHT22;48433;53.016;-2.260;2023-03-01T16:28:07;8.80;99.90
59309;DHT22;48433;53.016;-2.260;2023-03-01T16:30:38;8.70;99.90
59309;DHT22;48433;53.016;-2.260;2023-03-01T16:38:27;8.70;99.90
59309;DHT22;48433;53.016;-2.260;2023-03-01T16:40:55;8.70;99.90
59309;DHT22;48433;53.016;-2.260;2023-03-01T16:43:23;8.70;99.90
59309;DHT22;48433;53.016;-2.260;2023-03-01T16:45:50;8.70;99.90
59309;DHT22;48433;53.016;-2.260;2023-03-01T16:48:18;8.70;99.90
59309;DHT22;48433;53.016;-2.260;2023-03-01T16:50:58;8.60;99.90
59309;DHT22;48433;53.016;-2.260;2023-03-01T16:53:27;8.60;99.90
59309;DHT22;48433;53.016;-2.260;2023-03-01T16:55:58;8.50;99.90
59309;DHT22;48433;53.016;-2.260;2023-03-01T16:58:26;8.50;99.90
59309;DHT22;48433;53.016;-2.260;2023-03-01T17:00:54;8.50;99.90
59309;DHT22;48433;53.016;-2.260;2023-03-01T17:03:24;8.40;99.90
59309;DHT22;48433;53.016;-2.260;2023-03-01T17:05:53;8.40;99.90
59309;DHT22;48433;53.016;-2.260;2023-03-01T17:08:21;8.30;99.90
59309;DHT22;48433;53.016;-2.260;2023-03-01T17:13:16;8.20;99.90
59309;DHT22;48433;53.016;-2.260;2023-03-01T17:20:40;7.90;99.90
59309;DHT22;48433;53.016;-2.260;2023-03-01T17:25:42;7.70;99.90
59309;DHT22;48433;53.016;-2.260;2023-03-01T17:28:12;7.50;99.90
59309;DHT22;48433;53.016;-2.260;2023-03-01T17:30:43;7.50;99.90
59309;DHT22;48433;53.016;-2.260;2023-03-01T17:38:07;7.40;99.90
59309;DHT22;48433;53.016;-2.260;2023-03-01T17:40:36;7.40;99.90
59309;DHT22;48433;53.016;-2.260;2023-03-01T17:43:04;7.30;99.90
59309;DHT22;48433;53.016;-2.260;2023-03-01T17:50:28;7.10;99.90
59309;DHT22;48433;53.016;-2.260;2023-03-01T18:00:20;7.00;99.90
59309;DHT22;48433;53.016;-2.260;2023-03-01T18:02:48;7.10;99.90
59309;DHT22;48433;53.016;-2.260;2023-03-01T18:15:08;7.30;99.90
59309;DHT22;48433;53.016;-2.260;2023-03-01T18:17:36;7.30;99.90
59309;DHT22;48433;53.016;-2.260;2023-03-01T18:20:06;7.30;99.90
59309;DHT22;48433;53.016;-2.260;2023-03-01T18:22:33;7.30;99.90
59309;DHT22;48433;53.016;-2.260;2023-03-01T18:27:30;7.20;99.90
59309;DHT22;48433;53.016;-2.260;2023-03-01T18:32:27;7.10;99.90
59309;DHT22;48433;53.016;-2.260;2023-03-01T18:34:55;7.10;99.90
59309;DHT22;48433;53.016;-2.260;2023-03-01T18:37:23;7.10;99.90
59309;DHT22;48433;53.016;-2.260;2023-03-01T18:39:51;7.00;99.90
59309;DHT22;48433;53.016;-2.260;2023-03-01T18:42:20;7.00;99.90
59309;DHT22;48433;53.016;-2.260;2023-03-01T18:44:48;7.00;99.90
59309;DHT22;48433;53.016;-2.260;2023-03-01T18:57:08;6.90;99.90
59309;DHT22;48433;53.016;-2.260;2023-03-01T19:09:28;6.80;99.90
59309;DHT22;48433;53.016;-2.260;2023-03-01T19:26:59;6.60;99.90
59309;DHT22;48433;53.016;-2.260;2023-03-01T19:29:27;6.30;99.90
59309;DHT22;48433;53.016;-2.260;2023-03-01T19:34:23;6.10;99.90
59309;DHT22;48433;53.016;-2.260;2023-03-01T19:36:51;6.10;99.90
59309;DHT22;48433;53.016;-2.260;2023-03-01T19:49:12;6.10;99.90
59309;DHT22;48433;53.016;-2.260;2023-03-01T19:56:39;5.80;99.90
59309;DHT22;48433;53.016;-2.260;2023-03-01T19:59:07;5.60;99.90
59309;DHT22;48433;53.016;-2.260;2023-03-01T20:01:35;5.60;99.90
59309;DHT22;48433;53.016;-2.260;2023-03-01T20:06:32;5.60;99.90
59309;DHT22;48433;53.016;-2.260;2023-03-01T20:09:05;5.70;99.90
59309;DHT22;48433;53.016;-2.260;2023-03-01T20:14:16;5.70;99.90
59309;DHT22;48433;53.016;-2.260;2023-03-01T20:16:44;5.90;99.90
59309;DHT22;48433;53.016;-2.260;2023-03-01T20:21:39;6.10;99.90
59309;DHT22;48433;53.016;-2.260;2023-03-01T20:24:07;6.10;99.90
59309;DHT22;48433;53.016;-2.260;2023-03-01T20:33:59;6.20;99.90
59309;DHT22;48433;53.016;-2.260;2023-03-01T20:38:56;6.20;99.90
59309;DHT22;48433;53.016;-2.260;2023-03-01T20:41:23;6.10;99.90
59309;DHT22;48433;53.016;-2.260;2023-03-01T20:43:53;6.10;99.90
59309;DHT22;48433;53.016;-2.260;2023-03-01T20:46:23;6.00;99.90
59309;DHT22;48433;53.016;-2.260;2023-03-01T20:51:21;5.90;99.90
59309;DHT22;48433;53.016;-2.260;2023-03-01T20:53:49;6.00;99.90
59309;DHT22;48433;53.016;-2.260;2023-03-01T20:56:19;5.90;99.90
59309;DHT22;48433;53.016;-2.260;2023-03-01T20:59:06;6.00;99.90
59309;DHT22;48433;53.016;-2.260;2023-03-01T21:01:37;6.10;99.90
59309;DHT22;48433;53.016;-2.260;2023-03-01T21:06:36;6.10;99.90
59309;DHT22;48433;53.016;-2.260;2023-03-01T21:09:05;6.10;99.90
59309;DHT22;48433;53.016;-2.260;2023-03-01T21:14:01;6.20;99.90
59309;DHT22;48433;53.016;-2.260;2023-03-01T21:16:31;6.20;99.90
59309;DHT22;48433;53.016;-2.260;2023-03-01T21:19:00;6.20;99.90
59309;DHT22;48433;53.016;-2.260;2023-03-01T21:24:03;6.20;99.90
59309;DHT22;48433;53.016;-2.260;2023-03-01T21:26:31;6.20;99.90
59309;DHT22;48433;53.016;-2.260;2023-03-01T21:29:00;6.20;99.90
59309;DHT22;48433;53.016;-2.260;2023-03-01T21:31:30;6.20;99.90
59309;DHT22;48433;53.016;-2.260;2023-03-01T21:34:04;6.10;99.90
59309;DHT22;48433;53.016;-2.260;2023-03-01T21:36:33;6.10;99.90
59309;DHT22;48433;53.016;-2.260;2023-03-01T21:39:03;6.10;99.90
59309;DHT22;48433;53.016;-2.260;2023-03-01T21:41:34;6.10;99.90
59309;DHT22;48433;53.016;-2.260;2023-03-01T21:44:03;6.00;99.90
59309;DHT22;48433;53.016;-2.260;2023-03-01T21:46:34;6.00;99.90
59309;DHT22;48433;53.016;-2.260;2023-03-01T21:49:03;6.00;99.90
59309;DHT22;48433;53.016;-2.260;2023-03-01T21:51:31;6.10;99.90
59309;DHT22;48433;53.016;-2.260;2023-03-01T21:56:31;6.00;99.90
59309;DHT22;48433;53.016;-2.260;2023-03-01T22:01:29;6.00;99.90
59309;DHT22;48433;53.016;-2.260;2023-03-01T22:03:58;6.10;99.90
59309;DHT22;48433;53.016;-2.260;2023-03-01T22:06:32;6.00;99.90
59309;DHT22;48433;53.016;-2.260;2023-03-01T22:09:04;6.00;99.90
59309;DHT22;48433;53.016;-2.260;2023-03-01T22:11:35;6.10;99.90
59309;DHT22;48433;53.016;-2.260;2023-03-01T22:14:04;6.10;99.90
59309;DHT22;48433;53.016;-2.260;2023-03-01T22:16:34;6.10;99.90
59309;DHT22;48433;53.016;-2.260;2023-03-01T22:19:03;6.10;99.90
59309;DHT22;48433;53.016;-2.260;2023-03-01T22:21:32;6.20;99.90
59309;DHT22;48433;53.016;-2.260;2023-03-01T22:24:00;6.10;99.90
59309;DHT22;48433;53.016;-2.260;2023-03-01T22:26:33;6.10;99.90
59309;DHT22;48433;53.016;-2.260;2023-03-01T22:29:04;6.20;99.90
59309;DHT22;48433;53.016;-2.260;2023-03-01T22:34:01;6.10;99.90
59309;DHT22;48433;53.016;-2.260;2023-03-01T22:38:57;6.10;99.90
59309;DHT22;48433;53.016;-2.260;2023-03-01T22:41:28;6.10;99.90
59309;DHT22;48433;53.016;-2.260;2023-03-01T22:46:26;6.10;99.90
59309;DHT22;48433;53.016;-2.260;2023-03-01T22:48:53;6.20;99.90
59309;DHT22;48433;53.016;-2.260;2023-03-01T22:51:25;6.20;99.90
59309;DHT22;48433;53.016;-2.260;2023-03-01T22:53:53;6.20;99.90
59309;DHT22;48433;53.016;-2.260;2023-03-01T22:56:24;6.20;99.90
59309;DHT22;48433;53.016;-2.260;2023-03-01T23:01:22;6.20;99.90
59309;DHT22;48433;53.016;-2.260;2023-03-01T23:03:50;6.10;99.90
59309;DHT22;48433;53.016;-2.260;2023-03-01T23:06:19;6.10;99.90
59309;DHT22;48433;53.016;-2.260;2023-03-01T23:08:52;6.20;99.90
59309;DHT22;48433;53.016;-2.260;2023-03-01T23:11:21;6.10;99.90